Huvudsida
METAR-TAF:

METAR-TAF

Flygplatser :

Bagdads internationella flygplats

Bagdad, Irak

latitud: 33-15-45N, longitud: 44-14-04E, höjd: 35 m

Aktuellt väderrapport

Denna rapport gjordes för 11 minuter sedan, klockan 08:00 UTC
Vind 7 kt från nordost, varierande mellan nord och ost
Temperatur 40°C
Fuktighet 16%
Tryck 1009 hPa
Sikt 10 km eller mer
Inga moln under 1 500 m eller inga cumulonimbus

METAR: ORBI 270800Z 04007KT 350V100 CAVOK 40/09 Q1009 NOSIG

Tid: 11:11 (08:11 UTC)

Väderprognos

Denna rapport gjordes för 5 timmar och 11 minuter sedan, klockan 03:00 UTC
Prognos gäller från 27 kl. 06 UTC till 28 kl. 06 UTC
Vind 3 kt varierande vindriktning
Sikt: 8000 m

TAF: ORBI 270300Z 2706/2806 VRB03KT 8000 NSC

Aktuella väderrapporter och prognoser från 4000 flygplatser (METAR- och TAF-rapporter).

De tillgängliga stationerna syns som gula och röda prickar på kartan.

För musen över prickarna för att se namnen på stationerna.

Klicka sedan för att få väderrapporter och prognoser.

För att ändra kartan: Klicka på de gröna knapparna med ett svart kors på för att zooma in; den gröna knappen med ett streck på för att zooma ut; eller på de gröna pilarna för angränsande kartor.


METAR-TAF: